Stoney Fork, KY (40988)

5:39 AM EST on December 28, 2014 (GMT -0500)
Harlan | Change Station
CLOSE
Current Station
Airport
Location: Harlan,
Elevation: 1552 ft
Nearby Weather Stations

Elev 1552 ft 36.86 °N, 83.36 °W | Updated 24 minutes ago

Overcast
Overcast
45 °F
Feels Like 45 °F
N
0
Wind Variable Wind from North

Today
High -- | Low -- °F
--% Chance of Precip.
Yesterday
High -- | Low -- °F
Precip. -- in
7:46 AM 5:25 PM
Waxing Crescent, 46% visible
Pressure 30.03 in
Visibility 0.2 miles
Clouds Mostly Cloudy 300 ft
Overcast 1000 ft
Dew Point 45 °F
Humidity 100%
Rainfall 0.00 in
Snow Depth Not available.
UV 0 out of 12
Pollen .10 out of 12
Air Quality Not available.
Flu Activity Not available.
METAR KI35 281015Z AUTO 00000KT 1/4SM BKN003 OVC010 07/07 A3003 RMK AO1

More Conditions Fewer Conditions

Pressure 30.03 in
Visibility 0.2 miles
Clouds Mostly Cloudy 300 ft
Overcast 1000 ft
Dew Point 45 °F
Humidity 100%
Rainfall 0.00 in
Snow Depth Not available.
UV 0 out of 12
Pollen .10 out of 12
Air Quality Not available.
Flu Activity Not available.
METAR KI35 281015Z AUTO 00000KT 1/4SM BKN003 OVC010 07/07 A3003 RMK AO1

More Conditions Fewer Conditions

10-Day Weather Forecast

Almanac

Astronomy

Dec. 28, 2014 Rise Set
Actual Time
Civil Twilight
Nautical Twilight
Astronomical Twilight
Moon
Length of Visible Light
Length of Day
Tomorrow will be .
, % of the Moon is Illuminated

Today's Extremes

State Highs State Lows

Community

WunderPhotos

Upload Photos

1,781,232 photos uploaded!

WunderBlogs® & News

Nearby

Air Quality

  Air Quality AQ Index Pollutant
Not available.

Snow Depth

Station Depth Elevation

Earthquake Activity

City Distance Mag. Time & Date
Minimum magnitude displayed is 2.5.

Coastal Water Temperatures

Place Temperature

Nearby Weather Stations